Time,TemperatureF,DewpointF,PressureIn,WindDirection,WindDirectionDegrees,WindSpeedMPH,WindSpeedGustMPH,Humidity,HourlyPrecipIn,Conditions,Clouds,dailyrainin,SoftwareType,DateUTC
2013-06-03 00:02:00,53.0,48.0,29.90,East,84,0.0,0.0,82,0.00,,,0.00,,2013-06-03 05:02:00,
2013-06-03 00:12:00,53.0,48.0,29.90,East,84,0.0,0.0,82,0.00,,,0.00,,2013-06-03 05:12:00,
2013-06-03 00:22:00,53.0,48.0,29.90,East,84,0.0,0.0,84,0.00,,,0.00,,2013-06-03 05:22:00,
2013-06-03 00:32:00,53.0,48.0,29.90,East,84,0.0,0.0,84,0.00,,,0.00,,2013-06-03 05:32:00,
2013-06-03 00:40:00,52.0,49.0,29.90,East,84,0.0,0.0,88,0.00,,,0.00,,2013-06-03 05:40:00,
2013-06-03 00:42:00,53.0,48.0,29.90,East,84,0.0,0.0,84,0.00,,,0.00,,2013-06-03 05:42:00,
2013-06-03 00:52:00,52.0,48.0,29.90,East,84,0.0,0.0,87,0.00,,,0.00,,2013-06-03 05:52:00,
2013-06-03 01:02:00,52.0,49.0,29.90,East,84,0.0,0.0,88,0.00,,,0.00,,2013-06-03 06:02:00,
2013-06-03 01:12:00,52.0,49.0,29.90,East,84,0.0,0.0,88,0.00,,,0.00,,2013-06-03 06:12:00,
2013-06-03 01:22:00,52.0,49.0,29.90,East,84,0.0,0.0,88,0.00,,,0.00,,2013-06-03 06:22:00,
2013-06-03 01:32:00,52.0,49.0,29.90,East,84,0.0,0.0,88,0.00,,,0.00,,2013-06-03 06:32:00,
2013-06-03 01:52:00,51.0,48.0,29.89,East,84,0.0,0.0,90,0.00,,,0.00,,2013-06-03 06:52:00,
2013-06-03 02:01:00,50.0,47.0,29.90,East,84,0.0,0.0,91,0.00,,,0.00,,2013-06-03 07:01:00,
2013-06-03 02:02:00,51.0,48.0,29.89,East,84,0.0,0.0,90,0.00,,,0.00,,2013-06-03 07:02:00,
2013-06-03 02:12:00,51.0,48.0,29.89,East,84,0.0,0.0,90,0.00,,,0.00,,2013-06-03 07:12:00,
2013-06-03 02:22:00,50.0,47.0,29.90,East,84,0.0,0.0,91,0.00,,,0.00,,2013-06-03 07:22:00,
2013-06-03 02:32:00,50.0,47.0,29.90,East,84,0.0,0.0,91,0.00,,,0.00,,2013-06-03 07:32:00,
2013-06-03 02:42:00,50.0,47.0,29.90,East,84,0.0,0.0,91,0.00,,,0.00,,2013-06-03 07:42:00,
2013-06-03 02:52:00,50.0,47.0,29.90,East,84,0.0,0.0,91,0.00,,,0.00,,2013-06-03 07:52:00,
2013-06-03 03:22:00,49.0,47.0,29.89,East,84,0.0,0.0,93,0.00,,,0.00,,2013-06-03 08:22:00,
2013-06-03 03:32:00,49.0,47.0,29.89,East,84,0.0,0.0,93,0.00,,,0.00,,2013-06-03 08:32:00,
2013-06-03 03:42:00,49.0,47.0,29.89,East,84,0.0,0.0,93,0.00,,,0.00,,2013-06-03 08:42:00,
2013-06-03 03:52:00,49.0,47.0,29.90,East,84,0.0,0.0,93,0.00,,,0.00,,2013-06-03 08:52:00,
2013-06-03 04:02:00,49.0,47.0,29.90,East,84,0.0,0.0,93,0.00,,,0.00,,2013-06-03 09:02:00,
2013-06-03 04:12:00,49.0,47.0,29.90,East,84,0.0,0.0,93,0.00,,,0.00,,2013-06-03 09:12:00,
2013-06-03 04:22:00,49.0,47.0,29.91,East,84,0.0,0.0,94,0.00,,,0.00,,2013-06-03 09:22:00,
2013-06-03 04:33:00,48.0,46.0,29.91,East,84,0.0,0.0,94,0.00,,,0.00,,2013-06-03 09:33:00,
2013-06-03 04:42:00,48.0,46.0,29.91,East,84,0.0,0.0,94,0.00,,,0.00,,2013-06-03 09:42:00,
2013-06-03 04:53:00,48.0,46.0,29.91,East,84,0.0,0.0,94,0.00,,,0.00,,2013-06-03 09:53:00,
2013-06-03 05:03:00,48.0,46.0,29.91,East,84,0.0,0.0,94,0.00,,,0.00,,2013-06-03 10:03:00,
2013-06-03 05:52:00,47.0,46.0,29.92,East,84,0.0,0.0,95,0.00,,,0.00,,2013-06-03 10:52:00,
2013-06-03 06:02:00,47.0,46.0,29.92,East,84,0.0,0.0,95,0.00,,,0.00,,2013-06-03 11:02:00,
2013-06-03 06:12:00,47.0,46.0,29.92,East,84,0.0,0.0,95,0.00,,,0.00,,2013-06-03 11:12:00,
2013-06-03 06:22:00,47.0,46.0,29.93,East,84,0.0,0.0,95,0.00,,,0.00,,2013-06-03 11:22:00,
2013-06-03 06:32:00,47.0,46.0,29.93,East,84,0.0,0.0,95,0.00,,,0.00,,2013-06-03 11:32:00,
2013-06-03 06:42:00,47.0,46.0,29.93,East,84,0.0,0.0,95,0.00,,,0.00,,2013-06-03 11:42:00,
2013-06-03 06:52:00,49.0,48.0,29.92,East,84,0.0,0.0,96,0.00,,,0.00,,2013-06-03 11:52:00,
2013-06-03 07:02:00,49.0,48.0,29.92,East,84,0.0,0.0,96,0.00,,,0.00,,2013-06-03 12:02:00,
2013-06-03 07:12:00,49.0,48.0,29.92,East,84,0.0,0.0,96,0.00,,,0.00,,2013-06-03 12:12:00,
2013-06-03 07:22:00,49.0,48.0,29.92,East,84,0.0,0.0,96,0.00,,,0.00,,2013-06-03 12:22:00,
2013-06-03 07:32:00,53.0,51.0,29.90,East,84,0.0,1.0,94,0.00,,,0.00,,2013-06-03 12:32:00,
2013-06-03 07:42:00,53.0,51.0,29.90,East,84,0.0,1.0,94,0.00,,,0.00,,2013-06-03 12:42:00,
2013-06-03 07:52:00,53.0,51.0,29.90,East,84,0.0,1.0,94,0.00,,,0.00,,2013-06-03 12:52:00,
2013-06-03 08:02:00,56.0,52.0,29.90,East,84,0.0,0.0,88,0.00,,,0.00,,2013-06-03 13:02:00,
2013-06-03 08:12:00,56.0,52.0,29.90,East,84,0.0,0.0,88,0.00,,,0.00,,2013-06-03 13:12:00,
2013-06-03 08:22:00,58.0,52.0,29.90,East,84,0.0,0.0,80,0.00,,,0.00,,2013-06-03 13:22:00,
2013-06-03 08:32:00,60.0,51.0,29.88,South,185,0.0,6.0,71,0.00,,,0.00,,2013-06-03 13:32:00,
2013-06-03 08:42:00,60.0,51.0,29.88,South,185,0.0,6.0,71,0.00,,,0.00,,2013-06-03 13:42:00,
2013-06-03 08:52:00,61.0,52.0,29.88,South,185,0.0,2.0,73,0.00,,,0.00,,2013-06-03 13:52:00,
2013-06-03 09:02:00,62.0,52.0,29.88,South,186,0.0,3.0,71,0.00,,,0.00,,2013-06-03 14:02:00,
2013-06-03 09:12:00,62.0,52.0,29.88,South,186,0.0,3.0,71,0.00,,,0.00,,2013-06-03 14:12:00,
2013-06-03 09:22:00,62.0,51.0,29.88,SSW,196,0.0,5.0,66,0.00,,,0.00,,2013-06-03 14:22:00,
2013-06-03 09:32:00,61.0,50.0,29.88,South,180,1.0,13.0,68,0.00,,,0.00,,2013-06-03 14:32:00,
2013-06-03 09:42:00,61.0,50.0,29.88,South,180,1.0,13.0,68,0.00,,,0.00,,2013-06-03 14:42:00,
2013-06-03 09:52:00,61.0,50.0,29.88,South,180,1.0,4.0,67,0.00,,,0.00,,2013-06-03 14:52:00,
2013-06-03 10:02:00,61.0,49.0,29.88,South,184,4.0,14.0,64,0.00,,,0.00,,2013-06-03 15:02:00,
2013-06-03 10:12:00,61.0,49.0,29.88,South,184,4.0,14.0,64,0.00,,,0.00,,2013-06-03 15:12:00,
2013-06-03 10:22:00,61.0,49.0,29.88,South,184,4.0,14.0,64,0.00,,,0.00,,2013-06-03 15:22:00,
2013-06-03 10:33:00,62.0,48.0,29.87,South,184,1.0,10.0,61,0.00,,,0.00,,2013-06-03 15:33:00,
2013-06-03 10:43:00,62.0,48.0,29.87,South,184,1.0,10.0,61,0.00,,,0.00,,2013-06-03 15:43:00,
2013-06-03 10:53:00,63.0,49.0,29.87,South,178,2.0,13.0,60,0.00,,,0.00,,2013-06-03 15:53:00,
2013-06-03 11:03:00,63.0,48.0,29.87,SSE,163,2.0,16.0,59,0.00,,,0.00,,2013-06-03 16:03:00,
2013-06-03 11:13:00,63.0,48.0,29.87,SSE,163,2.0,16.0,59,0.00,,,0.00,,2013-06-03 16:13:00,
2013-06-03 11:23:00,63.0,48.0,29.87,SSE,163,2.0,16.0,59,0.00,,,0.00,,2013-06-03 16:23:00,
2013-06-03 11:33:00,63.0,48.0,29.86,SSE,168,2.0,11.0,59,0.00,,,0.00,,2013-06-03 16:33:00,
2013-06-03 11:42:00,63.0,48.0,29.86,SSE,168,2.0,11.0,59,0.00,,,0.00,,2013-06-03 16:42:00,
2013-06-03 11:53:00,63.0,48.0,29.86,SSE,168,2.0,11.0,59,0.00,,,0.00,,2013-06-03 16:53:00,
2013-06-03 12:02:00,65.0,50.0,29.86,SSW,202,2.0,11.0,59,0.00,,,0.00,,2013-06-03 17:02:00,
2013-06-03 12:12:00,65.0,50.0,29.86,SSW,202,2.0,11.0,59,0.00,,,0.00,,2013-06-03 17:12:00,
2013-06-03 12:22:00,66.0,48.0,29.84,SSW,192,0.0,12.0,53,0.00,,,0.00,,2013-06-03 17:22:00,
2013-06-03 12:33:00,66.0,48.0,29.84,SSW,192,0.0,12.0,53,0.00,,,0.00,,2013-06-03 17:33:00,
2013-06-03 12:42:00,66.0,48.0,29.84,SSW,192,0.0,12.0,53,0.00,,,0.00,,2013-06-03 17:42:00,
2013-06-03 12:52:00,67.0,48.0,29.83,South,178,1.0,10.0,51,0.00,,,0.00,,2013-06-03 17:52:00,
2013-06-03 13:02:00,67.0,48.0,29.83,South,178,1.0,10.0,51,0.00,,,0.00,,2013-06-03 18:02:00,
2013-06-03 13:12:00,67.0,48.0,29.83,South,178,1.0,10.0,51,0.00,,,0.00,,2013-06-03 18:12:00,
2013-06-03 13:22:00,69.0,49.0,29.82,SSW,199,2.0,10.0,49,0.00,,,0.00,,2013-06-03 18:22:00,
2013-06-03 13:32:00,70.0,49.0,29.81,SSW,198,1.0,14.0,48,0.00,,,0.00,,2013-06-03 18:32:00,
2013-06-03 13:42:00,70.0,49.0,29.81,SSW,198,1.0,14.0,48,0.00,,,0.00,,2013-06-03 18:42:00,
2013-06-03 13:52:00,70.0,48.0,29.79,SE,146,1.0,10.0,46,0.00,,,0.00,,2013-06-03 18:52:00,
2013-06-03 14:03:00,70.0,48.0,29.79,SE,146,1.0,10.0,46,0.00,,,0.00,,2013-06-03 19:03:00,
2013-06-03 14:12:00,70.0,48.0,29.79,SE,146,1.0,10.0,46,0.00,,,0.00,,2013-06-03 19:12:00,
2013-06-03 14:22:00,70.0,48.0,29.79,SE,146,1.0,10.0,46,0.00,,,0.00,,2013-06-03 19:22:00,
2013-06-03 14:31:00,73.0,49.0,29.76,SSE,163,2.0,14.0,42,0.00,,,0.00,,2013-06-03 19:31:00,
2013-06-03 14:32:00,72.0,47.0,29.77,South,180,0.0,12.0,41,0.00,,,0.00,,2013-06-03 19:32:00,
2013-06-03 14:42:00,72.0,47.0,29.77,South,180,0.0,12.0,41,0.00,,,0.00,,2013-06-03 19:42:00,
2013-06-03 14:53:00,73.0,49.0,29.76,SSE,163,2.0,14.0,42,0.00,,,0.00,,2013-06-03 19:53:00,
2013-06-03 15:02:00,73.0,49.0,29.76,SSE,163,2.0,14.0,42,0.00,,,0.00,,2013-06-03 20:02:00,
2013-06-03 15:12:00,73.0,49.0,29.76,SSE,163,2.0,14.0,42,0.00,,,0.00,,2013-06-03 20:12:00,
2013-06-03 15:22:00,73.0,49.0,29.76,SSE,163,2.0,14.0,42,0.00,,,0.00,,2013-06-03 20:22:00,
2013-06-03 15:52:00,74.0,46.0,29.74,East,88,1.0,15.0,37,0.00,,,0.00,,2013-06-03 20:52:00,
2013-06-03 16:02:00,74.0,46.0,29.74,East,88,1.0,15.0,37,0.00,,,0.00,,2013-06-03 21:02:00,
2013-06-03 16:12:00,74.0,46.0,29.74,East,88,1.0,15.0,37,0.00,,,0.00,,2013-06-03 21:12:00,
2013-06-03 16:22:00,75.0,47.0,29.72,SSW,194,1.0,13.0,37,0.00,,,0.00,,2013-06-03 21:22:00,
2013-06-03 16:33:00,75.0,46.0,29.72,SSE,164,2.0,20.0,36,0.00,,,0.00,,2013-06-03 21:33:00,
2013-06-03 16:43:00,75.0,46.0,29.72,SSE,164,2.0,20.0,36,0.00,,,0.00,,2013-06-03 21:43:00,
2013-06-03 16:53:00,76.0,48.0,29.72,SSE,161,1.0,20.0,37,0.00,,,0.00,,2013-06-03 21:53:00,
2013-06-03 17:03:00,76.0,46.0,29.72,South,188,1.0,14.0,34,0.00,,,0.00,,2013-06-03 22:03:00,
2013-06-03 17:12:00,76.0,46.0,29.72,South,188,1.0,14.0,34,0.00,,,0.00,,2013-06-03 22:12:00,
2013-06-03 17:22:00,76.0,47.0,29.71,SSE,165,1.0,12.0,36,0.00,,,0.00,,2013-06-03 22:22:00,
2013-06-03 17:32:00,76.0,47.0,29.71,SSE,165,1.0,12.0,36,0.00,,,0.00,,2013-06-03 22:32:00,
2013-06-03 17:42:00,76.0,47.0,29.71,SSE,165,1.0,12.0,36,0.00,,,0.00,,2013-06-03 22:42:00,
2013-06-03 17:53:00,75.0,46.0,29.71,ESE,120,1.0,14.0,36,0.00,,,0.00,,2013-06-03 22:53:00,
2013-06-03 18:02:00,75.0,46.0,29.71,SE,145,1.0,12.0,36,0.00,,,0.00,,2013-06-03 23:02:00,
2013-06-03 18:12:00,75.0,46.0,29.71,SE,145,1.0,12.0,36,0.00,,,0.00,,2013-06-03 23:12:00,
2013-06-03 18:22:00,75.0,46.0,29.71,SE,145,1.0,12.0,36,0.00,,,0.00,,2013-06-03 23:22:00,
2013-06-03 18:32:00,74.0,46.0,29.70,South,189,3.0,15.0,37,0.00,,,0.00,,2013-06-03 23:32:00,
2013-06-03 18:42:00,74.0,46.0,29.70,South,189,3.0,15.0,37,0.00,,,0.00,,2013-06-03 23:42:00,
2013-06-03 18:52:00,74.0,46.0,29.70,South,189,3.0,15.0,37,0.00,,,0.00,,2013-06-03 23:52:00,
2013-06-03 19:02:00,74.0,48.0,29.69,East,92,0.0,15.0,40,0.00,,,0.00,,2013-06-04 00:02:00,
2013-06-03 19:12:00,74.0,48.0,29.69,East,92,0.0,15.0,40,0.00,,,0.00,,2013-06-04 00:12:00,
2013-06-03 19:22:00,74.0,48.0,29.69,East,92,0.0,15.0,40,0.00,,,0.00,,2013-06-04 00:22:00,
2013-06-03 19:32:00,73.0,49.0,29.68,South,177,0.0,6.0,43,0.00,,,0.00,,2013-06-04 00:32:00,
2013-06-03 19:42:00,73.0,49.0,29.68,South,177,0.0,6.0,43,0.00,,,0.00,,2013-06-04 00:42:00,
2013-06-03 19:52:00,73.0,49.0,29.68,South,182,0.0,5.0,43,0.00,,,0.00,,2013-06-04 00:52:00,
2013-06-03 20:02:00,72.0,48.0,29.70,ESE,120,0.0,4.0,43,0.00,,,0.00,,2013-06-04 01:02:00,
2013-06-03 20:12:00,72.0,48.0,29.70,ESE,120,0.0,4.0,43,0.00,,,0.00,,2013-06-04 01:12:00,
2013-06-03 20:22:00,72.0,48.0,29.70,ESE,120,0.0,4.0,43,0.00,,,0.00,,2013-06-04 01:22:00,
2013-06-03 20:32:00,71.0,50.0,29.70,SSE,167,0.0,6.0,47,0.00,,,0.00,,2013-06-04 01:32:00,
2013-06-03 20:42:00,71.0,50.0,29.70,SSE,167,0.0,6.0,47,0.00,,,0.00,,2013-06-04 01:42:00,
2013-06-03 20:53:00,71.0,50.0,29.70,SSE,167,0.0,6.0,47,0.00,,,0.00,,2013-06-04 01:53:00,
2013-06-03 21:02:00,71.0,50.0,29.70,SSE,167,0.0,6.0,47,0.00,,,0.00,,2013-06-04 02:02:00,
2013-06-03 21:12:00,71.0,50.0,29.70,SSE,167,0.0,6.0,47,0.00,,,0.00,,2013-06-04 02:12:00,
2013-06-03 21:22:00,69.0,50.0,29.71,SSE,168,0.0,0.0,51,0.00,,,0.00,,2013-06-04 02:22:00,
2013-06-03 21:32:00,68.0,50.0,29.73,SSW,192,0.0,2.0,53,0.00,,,0.00,,2013-06-04 02:32:00,
2013-06-03 21:42:00,68.0,50.0,29.73,SSW,192,0.0,2.0,53,0.00,,,0.00,,2013-06-04 02:42:00,
2013-06-03 21:52:00,68.0,50.0,29.73,SSW,192,0.0,2.0,53,0.00,,,0.00,,2013-06-04 02:52:00,
2013-06-03 22:02:00,67.0,52.0,29.73,SSW,192,0.0,1.0,58,0.00,,,0.00,,2013-06-04 03:02:00,
2013-06-03 22:12:00,67.0,52.0,29.73,SSW,192,0.0,1.0,58,0.00,,,0.00,,2013-06-04 03:12:00,
2013-06-03 22:22:00,66.0,52.0,29.73,SSW,192,0.0,0.0,60,0.00,,,0.00,,2013-06-04 03:22:00,
2013-06-03 22:32:00,65.0,53.0,29.72,SSW,192,0.0,0.0,64,0.00,,,0.00,,2013-06-04 03:32:00,
2013-06-03 22:43:00,65.0,53.0,29.72,SSW,192,0.0,0.0,64,0.00,,,0.00,,2013-06-04 03:43:00,
2013-06-03 22:53:00,65.0,53.0,29.72,SSW,192,0.0,0.0,64,0.00,,,0.00,,2013-06-04 03:53:00,
2013-06-03 23:03:00,65.0,53.0,29.73,SSW,192,0.0,0.0,65,0.00,,,0.00,,2013-06-04 04:03:00,
2013-06-03 23:13:00,65.0,53.0,29.73,SSW,192,0.0,0.0,65,0.00,,,0.00,,2013-06-04 04:13:00,
2013-06-03 23:20:00,64.0,53.0,29.73,South,182,0.0,0.0,67,0.00,,,0.00,,2013-06-04 04:20:00,
2013-06-03 23:23:00,65.0,53.0,29.73,SSW,199,0.0,1.0,66,0.00,,,0.00,,2013-06-04 04:23:00,
2013-06-03 23:33:00,65.0,53.0,29.73,SSW,199,0.0,1.0,66,0.00,,,0.00,,2013-06-04 04:33:00,
2013-06-03 23:42:00,65.0,53.0,29.73,SSW,199,0.0,1.0,66,0.00,,,0.00,,2013-06-04 04:42:00,
2013-06-03 23:53:00,64.0,53.0,29.73,South,182,0.0,0.0,67,0.00,,,0.00,,2013-06-04 04:53:00,